createdAt,value
2022-11-21T00:01:19.547Z,43.33
2022-11-21T00:06:06.621Z,45.20
2022-11-21T00:10:54.626Z,38.13
2022-11-21T00:15:40.088Z,37.65
2022-11-21T00:20:25.829Z,66.28
2022-11-21T00:25:12.318Z,39.90
2022-11-21T00:29:59.979Z,35.85
2022-11-21T00:34:45.287Z,48.70
2022-11-21T00:39:30.715Z,33.03
2022-11-21T00:44:16.041Z,38.75
2022-11-21T00:49:03.679Z,41.15
2022-11-21T00:53:48.970Z,39.92
2022-11-21T00:58:33.970Z,32.40
2022-11-21T01:03:19.292Z,39.72
2022-11-21T01:08:07.303Z,37.58
2022-11-21T01:12:52.650Z,38.45
2022-11-21T01:17:37.751Z,36.58
2022-11-21T01:22:23.311Z,27.95
2022-11-21T01:27:10.984Z,37.88
2022-11-21T01:31:56.271Z,28.60
2022-11-21T01:36:41.291Z,33.30
2022-11-21T01:41:31.414Z,31.65
2022-11-21T01:46:20.691Z,30.90
2022-11-21T01:51:11.301Z,26.17
2022-11-21T01:55:57.051Z,35.88
2022-11-21T02:00:45.335Z,31.75
2022-11-21T02:05:36.251Z,24.90
2022-11-21T02:10:23.119Z,41.20
2022-11-21T02:15:09.783Z,28.65
2022-11-21T02:19:59.077Z,28.45
2022-11-21T02:24:49.968Z,26.90
2022-11-21T02:29:37.939Z,30.17
2022-11-21T02:34:23.008Z,30.42
2022-11-21T02:39:09.790Z,25.88
2022-11-21T02:44:00.034Z,27.70
2022-11-21T02:48:48.242Z,32.58
2022-11-21T02:53:33.240Z,30.23
2022-11-21T02:58:19.747Z,31.90
2022-11-21T03:03:04.921Z,38.20
2022-11-21T03:07:52.928Z,35.33
2022-11-21T03:12:39.095Z,34.13
2022-11-21T03:17:24.468Z,27.85
2022-11-21T03:22:09.555Z,34.72
2022-11-21T03:26:57.527Z,39.05
2022-11-21T03:31:42.757Z,29.38
2022-11-21T03:36:28.055Z,38.97
2022-11-21T03:41:25.220Z,35.70
2022-11-21T03:46:13.132Z,36.47
2022-11-21T03:50:58.244Z,42.00
2022-11-21T03:55:43.499Z,34.78
2022-11-21T04:00:28.518Z,26.70
2022-11-21T04:05:16.506Z,32.50
2022-11-21T04:10:01.547Z,21.92
2022-11-21T04:14:46.928Z,31.75
2022-11-21T04:19:31.971Z,19.67
2022-11-21T04:24:19.861Z,25.58
2022-11-21T04:29:04.872Z,29.02
2022-11-21T04:33:50.171Z,28.10
2022-11-21T04:38:35.200Z,18.35
2022-11-21T04:43:23.121Z,20.05
2022-11-21T04:48:08.460Z,25.13
2022-11-21T04:52:54.917Z,22.73
2022-11-21T04:57:39.960Z,21.30
2022-11-21T05:02:27.963Z,23.58
2022-11-21T05:07:13.063Z,26.80
2022-11-21T05:12:10.696Z,20.63
2022-11-21T05:16:55.759Z,24.65
2022-11-21T05:21:43.668Z,26.08
2022-11-21T05:26:28.730Z,25.13
2022-11-21T05:31:14.031Z,27.65
2022-11-21T05:35:59.080Z,24.60
2022-11-21T05:40:46.966Z,35.15
2022-11-21T05:45:31.919Z,27.33
2022-11-21T05:50:17.318Z,30.73
2022-11-21T05:55:02.351Z,24.92
2022-11-21T05:59:50.286Z,31.17
2022-11-21T06:04:35.287Z,27.05
2022-11-21T06:09:20.588Z,23.73
2022-11-21T06:14:05.700Z,25.65
2022-11-21T06:19:03.818Z,26.52
2022-11-21T06:23:49.862Z,20.30
2022-11-21T06:28:36.985Z,15.68
2022-11-21T06:33:22.616Z,17.95
2022-11-21T06:38:10.272Z,14.93
2022-11-21T06:42:55.546Z,13.60
2022-11-21T06:47:40.568Z,17.80
2022-11-21T06:52:25.862Z,12.43
2022-11-21T06:57:13.455Z,11.27
2022-11-21T07:01:58.801Z,11.45
2022-11-21T07:06:43.860Z,11.82
2022-11-21T07:11:29.246Z,12.75
2022-11-21T07:16:17.271Z,13.55
2022-11-21T07:21:02.695Z,11.07
2022-11-21T07:25:48.188Z,13.30
2022-11-21T07:30:33.539Z,10.60
2022-11-21T07:35:21.156Z,11.90
2022-11-21T07:40:06.971Z,10.48
2022-11-21T07:44:52.000Z,10.10
2022-11-21T07:49:37.299Z,11.75
2022-11-21T07:54:24.916Z,9.48
2022-11-21T07:59:10.234Z,10.02
2022-11-21T08:03:55.413Z,8.05
2022-11-21T08:08:40.783Z,9.25
2022-11-21T08:13:28.422Z,12.48
2022-11-21T08:18:14.817Z,9.02
2022-11-21T08:22:59.799Z,8.32
2022-11-21T08:27:45.151Z,4.35
2022-11-21T08:32:33.050Z,4.88
2022-11-21T08:37:18.063Z,11.82
2022-11-21T08:42:06.250Z,20.17
2022-11-21T08:46:51.279Z,23.42
2022-11-21T08:51:39.423Z,38.80
2022-11-21T08:56:24.461Z,40.80
2022-11-21T09:01:09.756Z,71.30
2022-11-21T09:05:54.787Z,59.67
2022-11-21T09:10:42.671Z,67.43
2022-11-21T09:15:40.043Z,89.05
2022-11-21T09:20:25.710Z,86.93
2022-11-21T09:25:11.608Z,79.60
2022-11-21T09:29:59.603Z,95.95
2022-11-21T09:34:44.629Z,78.78
2022-11-21T09:39:30.179Z,76.15
2022-11-21T09:44:30.658Z,82.65
2022-11-21T09:49:19.655Z,83.85
2022-11-21T09:54:09.548Z,72.78
2022-11-21T09:59:08.122Z,70.30
2022-11-21T10:03:55.085Z,64.60
2022-11-21T10:08:55.020Z,64.97
2022-11-21T10:13:52.729Z,66.88
2022-11-21T10:19:22.061Z,68.65
2022-11-21T10:24:25.465Z,67.63
2022-11-21T10:29:18.258Z,71.45
2022-11-21T10:34:06.463Z,70.10
2022-11-21T10:38:53.208Z,48.22
2022-11-21T10:43:59.075Z,66.63
2022-11-21T10:48:44.401Z,65.95
2022-11-21T10:53:42.060Z,56.05
2022-11-21T10:58:43.359Z,59.00
2022-11-21T11:03:28.647Z,62.07
2022-11-21T11:08:15.332Z,59.03
2022-11-21T11:13:38.712Z,57.20
2022-11-21T11:18:24.978Z,49.75
2022-11-21T11:23:26.437Z,78.20
2022-11-21T11:28:12.058Z,62.33
2022-11-21T11:32:57.362Z,53.53
2022-11-21T11:37:47.098Z,54.42
2022-11-21T11:43:20.690Z,70.88
2022-11-21T11:48:11.141Z,73.30
2022-11-21T11:53:10.523Z,65.80
2022-11-21T11:58:01.239Z,69.68
2022-11-21T12:02:55.098Z,79.65
2022-11-21T12:12:55.843Z,75.22
2022-11-21T12:17:47.054Z,70.47
2022-11-21T12:22:32.527Z,70.60
2022-11-21T12:27:27.564Z,53.42
2022-11-21T12:32:30.464Z,78.90
2022-11-21T12:37:33.650Z,74.97
2022-11-21T12:42:41.816Z,55.03
2022-11-21T12:47:59.775Z,52.88
2022-11-21T12:53:04.070Z,54.17
2022-11-21T12:58:08.638Z,49.15
2022-11-21T13:03:20.621Z,49.55
2022-11-21T13:08:11.504Z,43.65
2022-11-21T13:13:03.256Z,43.50
2022-11-21T13:23:00.265Z,55.42
2022-11-21T13:27:46.268Z,46.85
2022-11-21T13:32:41.369Z,54.08
2022-11-21T13:38:01.979Z,48.53
2022-11-21T13:43:35.180Z,43.58
2022-11-21T13:48:36.744Z,45.95
2022-11-21T13:53:42.014Z,37.55
2022-11-21T13:58:47.083Z,37.80
2022-11-21T14:04:03.927Z,31.70
2022-11-21T14:09:20.502Z,31.58
2022-11-21T14:14:08.563Z,19.95
2022-11-21T14:18:53.850Z,22.05
2022-11-21T14:23:47.135Z,26.23
2022-11-21T14:28:34.383Z,30.83
2022-11-21T14:33:33.793Z,27.52
2022-11-21T14:38:19.119Z,26.52
2022-11-21T14:43:04.388Z,36.47
2022-11-21T14:47:51.379Z,29.20
2022-11-21T14:52:39.460Z,29.38
2022-11-21T14:57:27.625Z,32.90
2022-11-21T15:02:17.144Z,34.97
2022-11-21T15:07:02.464Z,23.90
2022-11-21T15:11:55.376Z,30.58
2022-11-21T15:16:40.934Z,28.20
2022-11-21T15:21:26.358Z,34.58
2022-11-21T15:26:31.203Z,39.90
2022-11-21T15:31:23.984Z,30.00
2022-11-21T15:36:16.509Z,28.17
2022-11-21T15:41:08.483Z,19.98
2022-11-21T15:46:04.852Z,26.00
2022-11-21T15:50:57.555Z,24.50
2022-11-21T15:55:43.896Z,25.50
2022-11-21T16:00:29.227Z,19.13
2022-11-21T16:05:15.990Z,14.27
2022-11-21T16:10:03.899Z,26.33
2022-11-21T16:14:49.031Z,19.70
2022-11-21T16:19:34.614Z,19.02
2022-11-21T16:24:19.814Z,21.05
2022-11-21T16:29:08.157Z,18.65
2022-11-21T16:33:53.163Z,23.25
2022-11-21T16:38:38.469Z,22.73
2022-11-21T16:43:23.549Z,19.38
2022-11-21T16:48:11.544Z,22.08
2022-11-21T16:52:56.623Z,20.40
2022-11-21T16:57:43.318Z,24.13
2022-11-21T17:02:28.395Z,28.02
2022-11-21T17:07:16.346Z,25.25
2022-11-21T17:12:01.747Z,22.52
2022-11-21T17:16:48.936Z,26.23
2022-11-21T17:21:34.952Z,29.58
2022-11-21T17:26:25.366Z,21.92
2022-11-21T17:31:11.324Z,24.52
2022-11-21T17:35:56.642Z,35.22
2022-11-21T17:40:41.760Z,34.00
2022-11-21T17:45:29.691Z,30.50
2022-11-21T17:50:14.788Z,22.20
2022-11-21T17:55:00.055Z,29.23
2022-11-21T17:59:45.318Z,26.35
2022-11-21T18:04:34.521Z,17.98
2022-11-21T18:09:19.859Z,25.88
2022-11-21T18:14:05.869Z,24.63
2022-11-21T18:18:51.836Z,27.15
2022-11-21T18:23:39.999Z,29.92
2022-11-21T18:28:25.023Z,24.58
2022-11-21T18:33:14.522Z,17.30
2022-11-21T18:42:50.107Z,28.15
2022-11-21T18:47:35.375Z,36.45
2022-11-21T18:52:20.692Z,25.30
2022-11-21T18:57:06.091Z,17.25
2022-11-21T19:01:53.913Z,26.10
2022-11-21T19:06:39.509Z,18.45
2022-11-21T19:11:27.149Z,23.20
2022-11-21T19:16:15.919Z,26.65
2022-11-21T19:21:04.648Z,28.90
2022-11-21T19:25:50.035Z,26.73
2022-11-21T19:30:36.401Z,21.45
2022-11-21T19:35:23.755Z,32.05
2022-11-21T19:40:13.110Z,21.08
2022-11-21T19:44:58.416Z,21.85
2022-11-21T19:49:43.724Z,24.65
2022-11-21T19:54:28.990Z,29.23
2022-11-21T19:59:17.681Z,24.60
2022-11-21T20:04:05.363Z,21.08
2022-11-21T20:08:53.951Z,18.52
2022-11-21T20:13:39.660Z,28.70
2022-11-21T20:18:28.852Z,21.77
2022-11-21T20:23:14.376Z,27.08
2022-11-21T20:27:59.708Z,22.67
2022-11-21T20:32:44.840Z,23.35
2022-11-21T20:37:32.721Z,18.83
2022-11-21T20:42:17.760Z,16.48
2022-11-21T20:47:03.070Z,17.15
2022-11-21T20:56:56.600Z,27.13
2022-11-21T21:01:41.849Z,24.00
2022-11-21T21:06:27.348Z,31.40
2022-11-21T21:11:36.891Z,28.42
2022-11-21T21:16:25.647Z,29.05
2022-11-21T21:21:17.264Z,24.95
2022-11-21T21:30:55.022Z,12.05
2022-11-21T21:35:42.948Z,11.98
2022-11-21T21:40:27.984Z,21.00
2022-11-21T21:45:14.222Z,19.33
2022-11-21T21:49:59.271Z,14.38
2022-11-21T21:54:47.442Z,20.95
2022-11-21T21:59:33.134Z,19.67
2022-11-21T22:04:18.502Z,22.63
2022-11-21T22:09:03.574Z,20.88
2022-11-21T22:13:55.469Z,17.15
2022-11-21T22:18:41.202Z,26.55
2022-11-21T22:23:27.241Z,36.45
2022-11-21T22:28:12.905Z,32.90
2022-11-21T22:33:00.868Z,24.10
2022-11-21T22:37:45.908Z,14.75
2022-11-21T22:42:31.419Z,22.15
2022-11-21T22:47:16.449Z,18.02
2022-11-21T22:52:04.421Z,13.85
2022-11-21T22:56:49.440Z,24.95
2022-11-21T23:01:36.697Z,17.52
2022-11-21T23:06:23.889Z,18.75
2022-11-21T23:11:13.541Z,29.42
2022-11-21T23:15:58.959Z,25.48
2022-11-21T23:20:46.419Z,14.85
2022-11-21T23:25:32.446Z,19.08
2022-11-21T23:30:20.509Z,12.50
2022-11-21T23:35:06.165Z,29.15
2022-11-21T23:39:51.588Z,30.65
2022-11-21T23:44:36.876Z,27.60
2022-11-21T23:49:24.552Z,29.20
2022-11-21T23:54:09.880Z,37.90
2022-11-21T23:58:54.950Z,30.65
